Time;durP1;ratioP1;P1;durP2;ratioP2;P2;SDS_P1;SDS_P2;PMS_P1;PMS_P2;Temp;Humidity;BMP_temperature;BMP_pressure;BME280_temperature;BME280_humidity;BME280_pressure;Samples;Min_cycle;Max_cycle;Signal;HPM_P1;HPM_P2
2021/03/30 00:02:06;;;;;;;6.25;5.65;;;;;;;22.09;46.73;102145.30;1830956;77;21218;-60
2021/03/30 00:04:33;;;;;;;6.25;5.22;;;;;;;22.09;46.71;102149.46;1826870;77;21135;-61
2021/03/30 00:06:59;;;;;;;6.20;5.15;;;;;;;22.08;46.71;102151.96;1825081;77;21171;-60
2021/03/30 00:09:26;;;;;;;5.12;4.45;;;;;;;22.08;46.72;102148.36;1819550;77;21179;-60
2021/03/30 00:11:53;;;;;;;5.90;4.87;;;;;;;22.09;46.73;102149.46;1820866;77;21201;-60
2021/03/30 00:14:19;;;;;;;6.67;5.58;;;;;;;22.10;46.72;102146.13;1816405;77;21173;-60
2021/03/30 00:16:45;;;;;;;5.47;4.97;;;;;;;22.12;46.69;102148.03;1820736;77;21206;-60
2021/03/30 00:19:12;;;;;;;6.75;5.62;;;;;;;22.10;46.65;102143.36;1817572;77;21053;-60
2021/03/30 00:21:38;;;;;;;6.75;5.00;;;;;;;22.09;46.64;102150.02;1811613;77;21546;-61
2021/03/30 00:24:07;;;;;;;6.53;5.80;;;;;;;22.10;46.68;102140.59;1826668;77;21258;-60
2021/03/30 00:26:35;;;;;;;5.87;5.37;;;;;;;22.11;46.67;102147.76;1814667;77;21499;-60
2021/03/30 00:29:03;;;;;;;6.33;5.72;;;;;;;22.13;46.63;102142.76;1830813;77;21091;-60
2021/03/30 00:31:30;;;;;;;6.60;6.00;;;;;;;22.14;46.61;102145.80;1820926;77;21086;-61
2021/03/30 00:33:57;;;;;;;6.67;6.08;;;;;;;22.12;46.58;102144.70;1823497;77;21285;-60
2021/03/30 00:36:23;;;;;;;5.80;5.20;;;;;;;22.11;46.59;102146.38;1818722;77;21120;-60
2021/03/30 00:38:49;;;;;;;6.25;5.62;;;;;;;22.11;46.60;102143.05;1813864;77;21527;-60
2021/03/30 00:41:16;;;;;;;6.40;5.80;;;;;;;22.13;46.59;102144.14;1815656;77;21179;-60
2021/03/30 00:43:42;;;;;;;7.70;6.47;;;;;;;22.14;46.57;102145.25;1821145;77;21103;-60
2021/03/30 00:46:13;;;;;;;7.28;6.47;;;;;;;22.15;46.53;102139.15;1830786;77;21625;-60
2021/03/30 00:48:40;;;;;;;6.65;6.05;;;;;;;22.13;46.50;102142.20;1819697;77;21212;-60
2021/03/30 00:51:07;;;;;;;6.22;5.72;;;;;;;22.13;46.52;102139.44;1819516;77;21226;-60
2021/03/30 00:53:35;;;;;;;7.42;6.42;;;;;;;22.12;46.54;102139.16;1815751;77;21127;-60
2021/03/30 00:56:02;;;;;;;7.10;6.28;;;;;;;22.14;46.52;102141.65;1819672;77;21159;-60
2021/03/30 00:58:28;;;;;;;7.45;6.75;;;;;;;22.14;46.49;102139.70;1819820;77;21634;-60
2021/03/30 01:00:54;;;;;;;6.85;6.10;;;;;;;22.15;46.46;102134.99;1819627;77;21124;-60
2021/03/30 01:03:21;;;;;;;6.90;6.20;;;;;;;22.13;46.44;102134.45;1826735;77;21144;-60
2021/03/30 01:05:47;;;;;;;6.92;6.22;;;;;;;22.12;46.45;102127.24;1821172;77;21570;-60
2021/03/30 01:08:29;;;;;;;7.58;6.87;;;;;;;22.12;46.46;102126.69;1821661;77;21511;-60
2021/03/30 01:11:15;;;;;;;6.95;6.28;;;;;;;22.13;46.44;102125.58;1828893;77;21471;-60
2021/03/30 01:14:06;;;;;;;7.33;6.65;;;;;;;22.16;46.41;102124.14;1734750;78;21178;-61
2021/03/30 01:16:41;;;;;;;7.70;7.00;;;;;;;22.15;46.35;102121.13;1773464;79;21530;-62
2021/03/30 01:19:46;;;;;;;7.30;6.42;;;;;;;22.12;46.34;102129.46;1778995;79;21565;-62
2021/03/30 01:22:33;;;;;;;7.12;6.42;;;;;;;22.11;46.32;102126.97;1702170;82;21156;-62
2021/03/30 01:24:59;;;;;;;7.65;6.95;;;;;;;22.12;46.32;102134.17;1699466;82;21671;-61
2021/03/30 01:27:50;;;;;;;7.45;6.75;;;;;;;22.13;46.29;102131.12;1673976;82;21166;-60
2021/03/30 01:30:18;;;;;;;8.58;7.78;;;;;;;22.14;46.24;102127.78;1704483;82;21164;-61
2021/03/30 01:32:55;;;;;;;8.43;7.62;;;;;;;22.11;46.19;102115.33;1704465;82;21628;-61
2021/03/30 01:35:24;;;;;;;8.65;7.78;;;;;;;22.10;46.22;102117.03;1675665;83;21194;-60
2021/03/30 01:37:51;;;;;;;7.70;7.10;;;;;;;22.09;46.24;102122.30;1659574;83;22191;-61
2021/03/30 01:40:24;;;;;;;8.60;7.80;;;;;;;22.10;46.24;102119.80;1658094;83;21521;-61
2021/03/30 01:42:51;;;;;;;9.08;8.05;;;;;;;22.12;46.21;102117.55;1651193;85;21174;-61
2021/03/30 01:45:19;;;;;;;9.15;8.20;;;;;;;22.13;46.16;102117.81;1666209;84;21019;-61
2021/03/30 01:47:46;;;;;;;9.63;8.73;;;;;;;22.12;46.11;102121.70;1698198;82;21554;-61
2021/03/30 01:50:13;;;;;;;8.05;7.25;;;;;;;22.10;46.12;102124.79;1722790;82;21211;-62
2021/03/30 01:52:39;;;;;;;10.20;8.38;;;;;;;22.10;46.13;102119.80;1723723;82;21600;-62
2021/03/30 01:55:12;;;;;;;8.88;7.97;;;;;;;22.11;46.11;102123.64;1708898;82;21573;-62
2021/03/30 01:57:39;;;;;;;10.55;9.00;;;;;;;22.13;46.09;102121.97;1723649;80;21126;-61
2021/03/30 02:00:07;;;;;;;8.45;7.65;;;;;;;22.14;46.04;102118.09;1711047;82;21767;-61
2021/03/30 02:02:34;;;;;;;8.85;8.05;;;;;;;22.12;46.00;102116.98;1694880;82;21202;-61
2021/03/30 02:05:01;;;;;;;8.93;8.03;;;;;;;22.11;45.98;102122.25;1705031;82;21173;-61
2021/03/30 02:07:28;;;;;;;9.73;8.35;;;;;;;22.10;45.99;102120.63;1699161;82;21222;-61
2021/03/30 02:09:59;;;;;;;9.35;8.45;;;;;;;22.12;45.98;102122.53;1708850;81;21169;-62
2021/03/30 02:12:30;;;;;;;9.55;8.75;;;;;;;22.14;45.95;102122.24;1685502;82;21193;-61
2021/03/30 02:14:53;;;;;;;9.25;8.43;;;;;;;22.15;45.92;102119.74;1693424;83;21307;-61
2021/03/30 02:17:31;;;;;;;9.80;8.80;;;;;;;22.15;45.86;102116.38;1730222;82;21154;-61
2021/03/30 02:20:17;;;;;;;9.48;8.50;;;;;;;22.13;45.83;102117.81;1705855;81;21178;-61
2021/03/30 02:23:13;;;;;;;8.98;8.08;;;;;;;22.11;45.84;102113.11;1719736;82;21585;-61
2021/03/30 02:25:43;;;;;;;9.63;8.68;;;;;;;22.12;45.83;102113.39;1666760;83;21263;-61
2021/03/30 02:28:16;;;;;;;11.12;9.55;;;;;;;22.13;45.79;102113.66;1668197;84;21197;-61
2021/03/30 02:30:42;;;;;;;10.70;9.60;;;;;;;22.14;45.77;102113.92;1714157;82;21206;-61
2021/03/30 02:33:13;;;;;;;10.18;9.28;;;;;;;22.12;45.73;102116.98;1723295;82;21181;-61
2021/03/30 02:35:39;;;;;;;;;;;;;;;22.11;45.71;102121.43;1722295;81;21094;-61
2021/03/30 02:38:07;;;;;;;8.90;8.08;;;;;;;22.09;45.72;102124.52;1724985;81;20321;-62
2021/03/30 02:40:34;;;;;;;9.70;8.55;;;;;;;22.09;45.75;102117.59;1694531;82;21243;-61
2021/03/30 02:43:00;;;;;;;10.10;9.15;;;;;;;22.11;45.71;102122.81;1671916;84;21173;-62
2021/03/30 02:45:29;;;;;;;9.93;9.03;;;;;;;22.10;45.68;102123.96;1718765;82;21145;-62
2021/03/30 02:47:58;;;;;;;9.73;8.75;;;;;;;22.10;45.64;102121.19;1711011;82;21184;-61
2021/03/30 02:50:25;;;;;;;9.05;8.20;;;;;;;22.08;45.63;102124.24;1728697;82;21145;-61
2021/03/30 02:52:52;;;;;;;9.60;8.70;;;;;;;22.09;45.63;102122.30;1667131;82;21222;-61
2021/03/30 02:55:18;;;;;;;10.35;9.38;;;;;;;22.11;45.60;102133.90;1724276;82;21241;-62
2021/03/30 02:57:45;;;;;;;11.05;9.90;;;;;;;22.13;45.56;102131.67;1724602;82;21498;-61
2021/03/30 03:00:13;;;;;;;11.75;10.55;;;;;;;22.14;45.50;102125.02;1724807;82;21591;-61
2021/03/30 03:02:41;;;;;;;11.10;9.58;;;;;;;22.13;45.46;102133.06;1728620;82;21552;-62
2021/03/30 03:05:09;;;;;;;10.25;9.35;;;;;;;22.11;45.43;102124.20;1685494;82;21317;-62
2021/03/30 03:07:37;;;;;;;11.28;10.08;;;;;;;22.10;45.42;102123.41;1721942;82;21458;-61
2021/03/30 03:10:07;;;;;;;11.22;9.75;;;;;;;22.11;45.41;102118.66;1720406;82;21596;-61
2021/03/30 03:12:36;;;;;;;11.15;10.20;;;;;;;22.12;45.39;102118.93;1729223;82;21137;-61
2021/03/30 03:15:05;;;;;;;11.43;10.32;;;;;;;22.13;45.36;102125.58;1721784;82;21152;-61
2021/03/30 03:17:31;;;;;;;11.30;10.20;;;;;;;22.14;45.29;102123.62;1723087;82;21125;-61
2021/03/30 03:19:59;;;;;;;10.80;9.73;;;;;;;22.11;45.26;102120.88;1712007;82;21126;-60
2021/03/30 03:22:25;;;;;;;10.03;9.03;;;;;;;22.10;45.24;102128.95;1715926;82;21177;-61
2021/03/30 03:24:52;;;;;;;11.00;9.90;;;;;;;22.09;45.25;102132.00;1718520;82;21170;-61
2021/03/30 03:27:18;;;;;;;11.03;9.93;;;;;;;22.12;45.22;102129.46;1688895;84;21206;-61
2021/03/30 03:29:45;;;;;;;8.48;7.60;;;;;;;22.14;45.19;102129.17;1681778;84;21517;-60
2021/03/30 03:32:11;;;;;;;9.55;7.17;;;;;;;22.14;45.15;102132.77;1686212;84;21173;-63
2021/03/30 03:34:38;;;;;;;9.35;6.53;;;;;;;22.13;45.06;102134.45;1686700;84;21655;-64
2021/03/30 03:37:05;;;;;;;6.97;5.90;;;;;;;22.11;45.00;102131.13;1678567;84;21182;-64
2021/03/30 03:39:31;;;;;;;7.47;6.17;;;;;;;22.08;45.00;102133.94;1679576;84;21240;-64
2021/03/30 03:41:58;;;;;;;7.87;6.20;;;;;;;22.10;45.06;102134.48;1668625;84;21227;-65
2021/03/30 03:44:28;;;;;;;6.03;5.42;;;;;;;22.12;45.06;102130.84;1672252;84;21209;-64
2021/03/30 03:46:55;;;;;;;5.78;4.87;;;;;;;22.16;45.07;102140.77;1674932;84;21602;-65
2021/03/30 03:52:02;;;;;;;4.62;4.17;;;;;;;22.24;45.12;102134.56;1869305;75;21539;-63
2021/03/30 03:54:29;;;;;;;6.08;4.55;;;;;;;22.22;45.16;102138.22;1826843;77;21144;-64
2021/03/30 03:57:19;;;;;;;7.47;4.75;;;;;;;22.27;45.21;102140.93;1834556;77;21194;-64
2021/03/30 03:59:46;;;;;;;5.37;4.87;;;;;;;22.32;45.23;102140.84;1832030;77;21548;-65
2021/03/30 04:02:24;;;;;;;5.00;4.47;;;;;;;22.37;45.21;102142.16;1832779;77;21003;-64
2021/03/30 04:05:16;;;;;;;7.75;4.83;;;;;;;22.41;45.25;102152.09;1834659;77;21165;-64
2021/03/30 04:07:59;;;;;;;5.97;4.97;;;;;;;22.43;45.32;102154.85;1830667;77;21169;-64
2021/03/30 04:10:28;;;;;;;6.40;4.17;;;;;;;22.45;45.38;102147.05;1822146;77;21320;-64
2021/03/30 04:12:55;;;;;;;7.37;5.20;;;;;;;22.52;45.40;102160.56;1833108;77;21211;-63
2021/03/30 04:15:24;;;;;;;6.47;5.10;;;;;;;22.55;45.42;102154.41;1831057;77;21404;-63
2021/03/30 04:17:52;;;;;;;7.20;4.95;;;;;;;22.58;45.40;102156.58;1827107;77;21185;-64
2021/03/30 04:20:20;;;;;;;8.25;5.17;;;;;;;22.61;45.39;102162.37;1842145;77;21150;-62
2021/03/30 04:22:57;;;;;;;6.30;5.10;;;;;;;22.61;45.40;102157.39;1833673;77;21198;-62
2021/03/30 04:25:25;;;;;;;8.45;4.70;;;;;;;22.62;45.39;102157.06;1832883;77;21457;-62
2021/03/30 04:27:53;;;;;;;5.70;5.00;;;;;;;22.68;45.38;102165.59;1834693;76;21186;-61
2021/03/30 04:30:21;;;;;;;7.90;5.53;;;;;;;22.75;45.36;102166.07;1827019;77;21476;-61
2021/03/30 04:32:47;;;;;;;8.98;5.67;;;;;;;22.81;45.33;102168.77;1833249;77;21153;-61
2021/03/30 04:35:14;;;;;;;6.28;4.83;;;;;;;22.85;45.27;102165.66;1837154;77;21414;-61
2021/03/30 04:37:41;;;;;;;8.48;4.83;;;;;;;22.87;45.23;102177.30;1836494;77;21170;-61
2021/03/30 04:40:10;;;;;;;7.58;4.50;;;;;;;22.86;45.21;102170.92;1834751;77;21129;-61
2021/03/30 04:42:38;;;;;;;8.18;4.80;;;;;;;22.85;45.19;102170.66;1829336;77;22205;-61
2021/03/30 04:45:07;;;;;;;6.40;4.80;;;;;;;22.83;45.19;102172.89;1833964;77;21584;-61
2021/03/30 04:47:33;;;;;;;6.37;4.75;;;;;;;22.82;45.20;102171.83;1837337;77;22137;-61
2021/03/30 04:49:59;;;;;;;6.78;4.58;;;;;;;22.79;45.20;102172.43;1829254;77;21644;-61
2021/03/30 04:52:26;;;;;;;9.33;4.92;;;;;;;22.75;45.22;102181.33;1832771;77;21197;-61
2021/03/30 04:54:52;;;;;;;6.28;4.58;;;;;;;22.69;45.24;102177.55;1828058;77;21234;-61
2021/03/30 04:57:19;;;;;;;5.33;4.30;;;;;;;22.66;45.25;102187.25;1842342;77;21446;-61
2021/03/30 04:59:45;;;;;;;6.50;4.55;;;;;;;22.63;45.29;102186.47;1825806;77;21188;-61
2021/03/30 05:02:12;;;;;;;8.10;4.90;;;;;;;22.61;45.31;102184.57;1823636;77;20975;-61
2021/03/30 05:04:38;;;;;;;6.40;4.47;;;;;;;22.57;45.33;102184.91;1833803;77;21387;-61
2021/03/30 05:07:05;;;;;;;5.75;4.30;;;;;;;22.55;45.34;102186.30;1826968;77;21742;-61
2021/03/30 05:09:31;;;;;;;7.10;4.58;;;;;;;22.52;45.36;102183.58;1825778;77;21154;-61
2021/03/30 05:11:58;;;;;;;6.28;4.35;;;;;;;22.48;45.38;102185.30;1826107;77;21145;-61
2021/03/30 05:14:25;;;;;;;6.90;5.00;;;;;;;22.47;45.36;102196.13;1833495;77;21197;-61
2021/03/30 05:16:51;;;;;;;5.33;4.15;;;;;;;22.45;45.38;102191.41;1827142;77;21142;-61
2021/03/30 05:19:18;;;;;;;6.25;4.90;;;;;;;22.42;45.38;102196.73;1835934;77;21422;-61
2021/03/30 05:21:44;;;;;;;6.53;4.15;;;;;;;22.39;45.41;102194.56;1827640;77;21590;-61
2021/03/30 05:24:11;;;;;;;5.45;4.47;;;;;;;22.36;45.41;102194.61;1829828;77;21132;-61
2021/03/30 05:26:37;;;;;;;4.67;3.90;;;;;;;22.31;45.43;102192.72;1840990;77;21537;-61
2021/03/30 05:29:04;;;;;;;6.75;4.53;;;;;;;;;;1831807;77;21174;-61
2021/03/30 05:31:31;;;;;;;5.75;4.30;;;;;;;22.24;45.48;102199.72;1826354;77;21197;-61
2021/03/30 05:33:57;;;;;;;6.72;4.58;;;;;;;22.20;45.50;102198.11;1827619;77;21098;-61
2021/03/30 05:36:23;;;;;;;6.17;4.15;;;;;;;22.18;45.52;102200.92;1832848;77;21280;-61
2021/03/30 05:38:50;;;;;;;6.03;4.20;;;;;;;22.14;45.55;102199.86;1835696;77;21106;-61
2021/03/30 05:41:17;;;;;;;5.22;4.55;;;;;;;22.10;45.56;102203.78;1834682;77;20972;-61
2021/03/30 05:43:43;;;;;;;6.50;4.08;;;;;;;22.07;45.57;102204.34;1834008;77;21825;-61
2021/03/30 05:46:12;;;;;;;6.92;4.60;;;;;;;22.04;45.61;102205.50;1831344;77;21070;-62
2021/03/30 05:48:41;;;;;;;5.20;4.33;;;;;;;22.00;45.61;102204.44;1837139;77;21395;-61
2021/03/30 05:51:07;;;;;;;6.08;4.25;;;;;;;21.96;45.65;102198.66;1836397;77;21161;-62
2021/03/30 05:53:34;;;;;;;5.53;4.62;;;;;;;21.91;45.66;102198.67;1820014;77;21429;-61
2021/03/30 05:56:02;;;;;;;4.97;4.25;;;;;;;21.87;45.67;102197.61;1799958;77;21544;-61
2021/03/30 05:58:31;;;;;;;6.20;4.28;;;;;;;21.84;45.66;102200.98;1794230;77;21655;-61
2021/03/30 06:01:04;;;;;;;5.65;4.37;;;;;;;21.80;45.67;102203.52;1829981;77;21192;-61
2021/03/30 06:03:30;;;;;;;6.00;4.12;;;;;;;21.75;45.70;102199.40;1825752;77;21248;-61
2021/03/30 06:05:59;;;;;;;4.80;3.92;;;;;;;21.71;45.71;102203.88;1785693;78;21220;-61
2021/03/30 06:08:27;;;;;;;5.70;4.30;;;;;;;21.68;45.71;102210.00;1784769;78;21118;-61
2021/03/30 06:10:58;;;;;;;7.08;4.53;;;;;;;21.63;45.74;102209.22;1754403;80;21134;-62
2021/03/30 06:13:47;;;;;;;6.10;4.40;;;;;;;21.58;45.76;102215.63;1767709;79;21227;-61
2021/03/30 06:16:37;;;;;;;5.97;4.15;;;;;;;21.54;45.77;102212.34;1762244;79;21129;-61
2021/03/30 06:19:08;;;;;;;7.53;4.57;;;;;;;21.49;45.81;102212.38;1755700;79;21263;-61
2021/03/30 06:21:47;;;;;;;5.53;4.37;;;;;;;21.43;45.84;102216.56;1772897;79;21618;-61
2021/03/30 06:24:27;;;;;;;5.92;4.17;;;;;;;21.38;45.88;102209.71;1759836;79;21768;-62
2021/03/30 06:27:07;;;;;;;8.15;4.37;;;;;;;21.34;45.94;102216.11;1772228;80;21501;-62
2021/03/30 06:29:38;;;;;;;4.78;3.72;;;;;;;21.30;46.12;102213.66;1766000;79;21562;-63
2021/03/30 06:32:11;;;;;;;5.72;4.40;;;;;;;21.25;45.99;102221.44;1767339;79;21253;-62
2021/03/30 06:34:38;;;;;;;5.95;3.92;;;;;;;21.22;46.02;102226.14;1758725;79;21221;-62
2021/03/30 06:37:30;;;;;;;6.12;4.42;;;;;;;21.17;46.05;102226.20;1761299;79;21090;-63
2021/03/30 06:40:20;;;;;;;4.47;3.98;;;;;;;21.13;46.09;102225.09;1759911;79;22257;-61
2021/03/30 06:42:54;;;;;;;5.10;4.20;;;;;;;21.10;46.15;102228.96;1763924;79;21228;-62
2021/03/30 06:45:21;;;;;;;5.92;4.15;;;;;;;21.05;46.17;102215.98;1759137;79;21195;-62
2021/03/30 06:47:51;;;;;;;5.60;4.25;;;;;;;21.03;46.20;102216.02;1768326;79;21170;-61
2021/03/30 06:50:25;;;;;;;4.85;4.20;;;;;;;20.99;46.24;102211.61;1763773;79;21340;-62
2021/03/30 06:52:52;;;;;;;6.10;4.28;;;;;;;20.95;46.26;102218.28;1762880;79;21208;-61
2021/03/30 06:55:28;;;;;;;6.12;4.37;;;;;;;20.93;46.31;102215.52;1784135;78;21150;-62
2021/03/30 06:58:02;;;;;;;5.87;4.20;;;;;;;20.89;46.33;102219.97;1780684;80;21174;-61
2021/03/30 07:00:33;;;;;;;6.75;4.12;;;;;;;20.88;46.35;102216.92;1767982;79;21222;-62
2021/03/30 07:03:10;;;;;;;5.10;3.90;;;;;;;20.85;46.38;102222.48;1777196;79;21178;-61
2021/03/30 07:05:45;;;;;;;5.47;4.00;;;;;;;20.82;46.40;102219.46;1772015;79;21550;-62
2021/03/30 07:08:20;;;;;;;6.22;4.00;;;;;;;20.79;46.44;102220.84;1768298;79;21225;-61
2021/03/30 07:10:55;;;;;;;5.97;4.30;;;;;;;20.76;46.48;102224.19;1748412;80;21205;-61
2021/03/30 07:13:23;;;;;;;6.05;4.55;;;;;;;20.74;46.51;102225.05;1760824;80;21288;-61
2021/03/30 07:15:52;;;;;;;5.67;3.98;;;;;;;20.71;46.55;102229.73;1774732;79;21192;-61
2021/03/30 07:18:35;;;;;;;5.58;4.08;;;;;;;20.68;46.58;102230.86;1769561;79;21226;-61
2021/03/30 07:21:08;;;;;;;6.10;4.15;;;;;;;20.67;46.61;102230.59;1772908;79;21163;-61
2021/03/30 07:23:35;;;;;;;6.05;4.15;;;;;;;20.62;46.65;102228.70;1763903;79;21173;-61
2021/03/30 07:26:22;;;;;;;5.47;3.98;;;;;;;20.61;46.67;102235.89;1774660;79;22330;-61
2021/03/30 07:29:05;;;;;;;5.12;4.03;;;;;;;20.59;46.70;102233.95;1777689;79;21404;-62
2021/03/30 07:31:52;;;;;;;5.83;4.25;;;;;;;20.55;46.75;102237.83;1772571;79;23550;-62
2021/03/30 07:34:23;;;;;;;5.70;4.33;;;;;;;20.51;46.78;102247.25;1738058;79;21317;-62
2021/03/30 07:37:00;;;;;;;5.85;4.40;;;;;;;20.50;46.80;102237.30;1779264;79;21127;-62
2021/03/30 07:39:32;;;;;;;5.83;4.30;;;;;;;20.47;46.85;102236.48;1763818;79;21229;-62
2021/03/30 07:41:59;;;;;;;6.20;4.28;;;;;;;20.45;46.91;102244.22;1767917;79;21567;-62
2021/03/30 07:44:26;;;;;;;5.37;3.80;;;;;;;20.43;46.94;102244.24;1772398;79;21225;-62
2021/03/30 07:46:53;;;;;;;6.22;4.40;;;;;;;20.40;46.99;102238.73;1740895;79;21204;-62
2021/03/30 07:49:23;;;;;;;6.95;4.10;;;;;;;20.38;47.01;102238.17;1748914;80;21101;-62
2021/03/30 07:51:48;;;;;;;6.10;4.53;;;;;;;20.37;47.05;102232.92;1766413;79;21169;-62
2021/03/30 07:54:16;;;;;;;5.25;4.00;;;;;;;20.35;47.09;102237.92;1774951;79;21013;-62
2021/03/30 07:56:47;;;;;;;5.12;4.12;;;;;;;20.32;47.11;102241.25;1777893;79;22884;-62
2021/03/30 07:59:49;;;;;;;6.47;4.58;;;;;;;20.31;47.14;102241.80;1776226;79;21169;-62
2021/03/30 08:02:18;;;;;;;5.22;4.03;;;;;;;20.28;47.18;102240.95;1767371;79;21173;-62
2021/03/30 08:05:05;;;;;;;6.30;4.25;;;;;;;20.26;47.18;102229.89;1776287;79;21158;-62
2021/03/30 08:07:50;;;;;;;5.37;3.90;;;;;;;20.24;47.21;102235.69;1754699;79;21518;-62
2021/03/30 08:10:29;;;;;;;7.40;4.53;;;;;;;20.23;47.25;102244.28;1764577;78;21216;-62
2021/03/30 08:13:35;;;;;;;4.55;3.92;;;;;;;20.23;47.26;102242.91;1775952;78;21448;-62
2021/03/30 08:16:07;;;;;;;5.95;4.08;;;;;;;20.23;47.28;102235.99;1772832;78;21203;-62
2021/03/30 08:18:39;;;;;;;6.45;4.28;;;;;;;20.25;47.31;102230.45;1762715;78;21493;-62
2021/03/30 08:21:12;;;;;;;4.87;3.50;;;;;;;20.26;47.32;102236.25;1801267;78;21525;-62
2021/03/30 08:24:05;;;;;;;5.00;3.75;;;;;;;20.28;47.33;102241.52;1797813;78;21039;-62
2021/03/30 08:26:38;;;;;;;5.95;3.85;;;;;;;20.30;47.33;102239.31;1793917;78;21533;-62
2021/03/30 08:29:10;;;;;;;5.65;3.95;;;;;;;20.34;47.32;102245.38;1792978;78;21110;-63
2021/03/30 08:31:48;;;;;;;5.22;3.40;;;;;;;20.35;47.34;102237.37;1795510;78;21125;-62
2021/03/30 08:34:40;;;;;;;5.83;4.03;;;;;;;20.39;47.35;102239.84;1770943;78;21129;-62
2021/03/30 08:37:13;;;;;;;4.92;3.60;;;;;;;20.41;47.34;102243.13;1687849;83;21456;-62
2021/03/30 08:39:41;;;;;;;5.85;3.80;;;;;;;20.43;47.35;102236.78;1720019;81;21630;-62
2021/03/30 08:42:15;;;;;;;4.55;3.27;;;;;;;20.46;47.36;102238.98;1715052;82;21186;-62
2021/03/30 08:45:04;;;;;;;4.30;3.50;;;;;;;20.48;47.36;102238.16;1687152;82;21203;-62
2021/03/30 08:47:40;;;;;;;4.78;3.27;;;;;;;20.49;47.35;102230.14;1715728;82;21574;-62
2021/03/30 08:50:23;;;;;;;5.37;3.40;;;;;;;20.52;47.33;102237.03;1713858;82;21279;-62
2021/03/30 08:52:57;;;;;;;5.30;3.45;;;;;;;20.53;47.35;102233.16;1711286;82;21166;-59
2021/03/30 08:55:41;;;;;;;6.47;3.75;;;;;;;20.55;47.34;102228.70;1691840;83;21124;-61
2021/03/30 08:58:03;;;;;;;4.83;3.40;;;;;;;20.57;47.33;102236.18;1713306;82;21194;-60
2021/03/30 09:00:30;;;;;;;3.98;3.10;;;;;;;20.58;47.31;102232.31;1712549;82;21201;-61
2021/03/30 09:03:03;;;;;;;4.03;3.40;;;;;;;20.60;47.33;102239.75;1714079;82;21132;-61
2021/03/30 09:05:39;;;;;;;5.25;3.37;;;;;;;20.60;47.30;102231.45;1710098;82;21159;-61
2021/03/30 09:08:07;;;;;;;5.30;3.40;;;;;;;20.62;47.30;102230.63;1712866;82;21197;-60
2021/03/30 09:10:34;;;;;;;5.00;3.30;;;;;;;20.62;47.27;102219.02;1717778;82;21193;-60
2021/03/30 09:13:16;;;;;;;4.33;3.22;;;;;;;20.64;47.27;102222.31;1712240;82;21173;-60
2021/03/30 09:15:44;;;;;;;5.33;3.12;;;;;;;20.65;47.28;102219.83;1689259;83;22203;-61
2021/03/30 09:18:13;;;;;;;5.75;3.55;;;;;;;20.67;47.27;102218.14;1691152;83;21526;-61
2021/03/30 09:20:39;;;;;;;4.17;2.90;;;;;;;20.67;47.26;102213.44;1702394;81;21560;-61
2021/03/30 09:23:23;;;;;;;5.58;3.47;;;;;;;20.70;47.26;102216.22;1715030;81;21168;-60
2021/03/30 09:25:46;;;;;;;5.90;3.47;;;;;;;20.71;47.25;102224.20;1714022;81;21732;-61
2021/03/30 09:28:20;;;;;;;5.78;3.30;;;;;;;20.73;47.24;102215.63;1714191;81;21618;-61
2021/03/30 09:30:47;;;;;;;4.30;3.12;;;;;;;20.74;47.23;102211.77;1720958;81;21694;-61
2021/03/30 09:33:14;;;;;;;3.95;2.85;;;;;;;20.77;47.22;102213.40;1717485;81;21272;-61
2021/03/30 09:35:41;;;;;;;5.97;3.25;;;;;;;20.78;47.23;102202.61;1716484;81;21381;-61
2021/03/30 09:38:08;;;;;;;4.45;3.02;;;;;;;20.82;47.22;102203.70;1720769;81;21193;-61
2021/03/30 09:40:41;;;;;;;4.40;2.85;;;;;;;20.84;47.18;102209.75;1716344;81;21286;-61
2021/03/30 09:43:14;;;;;;;4.72;2.70;;;;;;;20.86;47.19;102199.80;1712940;81;21184;-61
2021/03/30 09:45:41;;;;;;;4.10;2.65;;;;;;;20.88;47.18;102203.09;1714324;82;21160;-60
2021/03/30 09:48:11;;;;;;;4.87;2.72;;;;;;;20.90;47.14;102202.27;1721797;81;21571;-61
2021/03/30 09:50:49;;;;;;;3.72;2.58;;;;;;;20.92;47.16;102197.25;1721885;81;21231;-61
2021/03/30 09:53:16;;;;;;;3.83;2.67;;;;;;;20.96;47.15;102196.39;1717891;81;21274;-61
2021/03/30 09:55:46;;;;;;;5.45;2.60;;;;;;;21.00;47.12;102191.14;1718578;82;21223;-61
2021/03/30 09:58:15;;;;;;;3.60;2.58;;;;;;;21.04;47.09;102188.63;1718581;81;27146;-60
2021/03/30 10:00:45;;;;;;;4.95;3.05;;;;;;;21.08;47.08;102188.31;1720490;81;21331;-61
2021/03/30 10:03:12;;;;;;;3.70;2.42;;;;;;;21.11;47.07;102180.81;1719509;81;22228;-61
2021/03/30 10:05:41;;;;;;;4.35;2.77;;;;;;;21.13;47.04;102180.02;1691273;83;21228;-62
2021/03/30 10:08:19;;;;;;;4.55;2.62;;;;;;;21.15;47.01;102175.83;1721132;81;21591;-63
2021/03/30 10:10:49;;;;;;;3.98;2.52;;;;;;;21.20;47.06;102172.20;1712683;81;21512;-62
2021/03/30 10:13:33;;;;;;;4.15;2.87;;;;;;;21.25;47.03;102174.38;1712313;83;21149;-62
2021/03/30 10:16:07;;;;;;;3.77;2.50;;;;;;;21.28;47.01;102179.33;1736167;82;21112;-63
2021/03/30 10:18:35;;;;;;;3.45;2.55;;;;;;;21.34;46.99;102182.89;1723659;83;21066;-63
2021/03/30 10:21:11;;;;;;;4.42;2.62;;;;;;;21.38;46.97;102165.41;1723694;81;21178;-62
2021/03/30 10:23:47;;;;;;;3.15;2.35;;;;;;;21.43;46.95;102172.81;1714993;83;21917;-62
2021/03/30 10:26:25;;;;;;;3.25;2.45;;;;;;;21.47;46.92;102171.70;1695914;83;21093;-61
2021/03/30 10:29:02;;;;;;;4.42;2.65;;;;;;;21.49;46.91;102170.84;1740247;82;21560;-62
2021/03/30 10:31:43;;;;;;;3.58;2.52;;;;;;;21.51;46.93;102169.45;1724259;81;21198;-59
2021/03/30 10:34:30;;;;;;;5.45;3.17;;;;;;;21.52;46.89;102172.47;1683226;83;21152;-59
2021/03/30 10:37:00;;;;;;;3.70;3.10;;;;;;;21.56;46.75;102172.14;1704046;82;21163;-61
2021/03/30 10:39:30;;;;;;;4.15;3.08;;;;;;;21.60;46.45;102164.91;1705909;82;21594;-58
2021/03/30 10:42:04;;;;;;;4.40;3.17;;;;;;;21.66;46.25;102160.16;1703643;82;21181;-60
2021/03/30 10:44:39;;;;;;;7.78;3.20;;;;;;;21.71;46.06;102164.27;1691051;83;22162;-59
2021/03/30 10:47:19;;;;;;;8.00;3.27;;;;;;;21.77;45.79;102156.98;1673012;83;21616;-60
2021/03/30 10:49:48;;;;;;;8.78;4.05;;;;;;;21.84;45.45;102160.80;1718448;81;21231;-58
2021/03/30 10:52:19;;;;;;;7.35;3.65;;;;;;;21.88;45.06;102165.47;1719558;81;21490;-62
2021/03/30 10:54:45;;;;;;;5.40;3.70;;;;;;;21.93;44.75;102151.32;1724275;81;21224;-60
2021/03/30 10:57:16;;;;;;;7.30;3.33;;;;;;;21.93;44.53;102151.32;1726630;81;21198;-65
2021/03/30 10:59:43;;;;;;;7.03;3.30;;;;;;;21.93;44.49;102150.77;1725932;81;21592;-64
2021/03/30 11:02:11;;;;;;;6.05;3.10;;;;;;;21.93;44.50;102149.38;1722887;81;21465;-66
2021/03/30 11:04:39;;;;;;;6.65;3.70;;;;;;;21.93;44.51;102149.38;1717744;81;21207;-65
2021/03/30 11:07:06;;;;;;;6.08;3.12;;;;;;;21.92;44.57;102142.18;1715089;81;21254;-66
2021/03/30 11:09:34;;;;;;;6.22;3.40;;;;;;;21.94;44.59;102137.73;1690292;83;22230;-63
2021/03/30 11:12:01;;;;;;;3.92;2.90;;;;;;;21.98;44.65;102136.83;1716083;81;21579;-58
2021/03/30 11:14:28;;;;;;;5.87;3.20;;;;;;;22.03;44.50;102131.78;1722291;81;21195;-63
2021/03/30 11:16:54;;;;;;;6.83;3.30;;;;;;;22.04;44.22;102129.28;1714477;82;21100;-66
2021/03/30 11:19:21;;;;;;;6.03;3.08;;;;;;;22.03;43.93;102119.31;1714767;82;21215;-61
2021/03/30 11:21:48;;;;;;;5.47;3.45;;;;;;;22.02;43.71;102130.98;1717919;82;21272;-61
2021/03/30 11:24:21;;;;;;;5.72;3.60;;;;;;;22.01;43.45;102124.34;1713201;82;21158;-61
2021/03/30 11:26:48;;;;;;;13.25;3.90;;;;;;;21.99;43.24;102122.41;1713335;82;21173;-63
2021/03/30 11:29:21;;;;;;;5.10;3.30;;;;;;;22.02;43.08;102116.30;1713397;82;21253;-63
2021/03/30 11:34:41;;;;;;;5.75;2.72;;;;;;;22.05;42.95;102111.55;1714053;82;21451;-63
2021/03/30 11:39:36;;;;;;;10.53;2.67;;;;;;;22.10;42.89;102110.10;1711484;82;21218;-63
2021/03/30 11:42:05;;;;;;;7.10;2.83;;;;;;;22.08;42.83;102109.00;1708350;82;21182;-63
2021/03/30 11:44:32;;;;;;;3.85;2.70;;;;;;;22.05;42.85;102099.91;1706646;82;21188;-63
2021/03/30 11:46:59;;;;;;;4.20;2.58;;;;;;;22.02;42.91;102099.12;1678677;84;22118;-63
2021/03/30 11:49:27;;;;;;;5.42;2.75;;;;;;;22.00;42.98;102102.73;1711855;82;21114;-63
2021/03/30 11:51:55;;;;;;;6.50;2.52;;;;;;;21.99;43.05;102097.47;1711633;82;21581;-62